sensor_id;sensor_type;location;lat;lon;timestamp;P1;durP1;ratioP1;P2;durP2;ratioP2
31482;SDS011;18103;52.246;8.052;2024-02-26T00:00:27;4.50;;;3.13;;
31482;SDS011;18103;52.246;8.052;2024-02-26T00:02:54;6.93;;;3.73;;
31482;SDS011;18103;52.246;8.052;2024-02-26T00:05:21;6.73;;;3.30;;
31482;SDS011;18103;52.246;8.052;2024-02-26T00:07:47;5.83;;;3.33;;
31482;SDS011;18103;52.246;8.052;2024-02-26T00:10:16;3.77;;;2.63;;
31482;SDS011;18103;52.246;8.052;2024-02-26T00:12:44;8.63;;;2.97;;
31482;SDS011;18103;52.246;8.052;2024-02-26T00:15:12;4.70;;;2.90;;
31482;SDS011;18103;52.246;8.052;2024-02-26T00:17:37;5.23;;;3.00;;
31482;SDS011;18103;52.246;8.052;2024-02-26T00:20:03;6.10;;;3.07;;
31482;SDS011;18103;52.246;8.052;2024-02-26T00:22:35;5.03;;;2.80;;
31482;SDS011;18103;52.246;8.052;2024-02-26T00:25:03;4.83;;;2.80;;
31482;SDS011;18103;52.246;8.052;2024-02-26T00:27:29;6.83;;;3.43;;
31482;SDS011;18103;52.246;8.052;2024-02-26T00:29:54;5.90;;;3.23;;
31482;SDS011;18103;52.246;8.052;2024-02-26T00:32:21;4.87;;;2.70;;
31482;SDS011;18103;52.246;8.052;2024-02-26T00:34:46;4.00;;;2.87;;
31482;SDS011;18103;52.246;8.052;2024-02-26T00:37:12;4.33;;;2.57;;
31482;SDS011;18103;52.246;8.052;2024-02-26T00:39:42;3.67;;;2.63;;
31482;SDS011;18103;52.246;8.052;2024-02-26T00:42:07;5.60;;;2.40;;
31482;SDS011;18103;52.246;8.052;2024-02-26T00:44:33;4.20;;;2.50;;
31482;SDS011;18103;52.246;8.052;2024-02-26T00:46:58;8.50;;;2.93;;
31482;SDS011;18103;52.246;8.052;2024-02-26T00:49:23;4.90;;;2.40;;
31482;SDS011;18103;52.246;8.052;2024-02-26T00:51:49;3.97;;;2.57;;
31482;SDS011;18103;52.246;8.052;2024-02-26T00:54:14;3.50;;;2.40;;
31482;SDS011;18103;52.246;8.052;2024-02-26T00:56:40;6.67;;;2.47;;
31482;SDS011;18103;52.246;8.052;2024-02-26T00:59:05;5.37;;;3.00;;
31482;SDS011;18103;52.246;8.052;2024-02-26T01:01:31;5.07;;;2.37;;
31482;SDS011;18103;52.246;8.052;2024-02-26T01:03:59;3.93;;;2.50;;
31482;SDS011;18103;52.246;8.052;2024-02-26T01:06:26;5.40;;;2.07;;
31482;SDS011;18103;52.246;8.052;2024-02-26T01:08:52;4.97;;;2.60;;
31482;SDS011;18103;52.246;8.052;2024-02-26T01:11:17;5.17;;;2.43;;
31482;SDS011;18103;52.246;8.052;2024-02-26T01:13:45;2.97;;;1.93;;
31482;SDS011;18103;52.246;8.052;2024-02-26T01:16:10;5.33;;;2.77;;
31482;SDS011;18103;52.246;8.052;2024-02-26T01:18:38;5.00;;;3.50;;
31482;SDS011;18103;52.246;8.052;2024-02-26T01:21:06;5.23;;;2.87;;
31482;SDS011;18103;52.246;8.052;2024-02-26T01:23:33;3.13;;;2.07;;
31482;SDS011;18103;52.246;8.052;2024-02-26T01:26:01;4.90;;;2.57;;
31482;SDS011;18103;52.246;8.052;2024-02-26T01:28:27;5.03;;;2.30;;
31482;SDS011;18103;52.246;8.052;2024-02-26T01:30:53;3.63;;;2.07;;
31482;SDS011;18103;52.246;8.052;2024-02-26T01:33:18;3.10;;;1.90;;
31482;SDS011;18103;52.246;8.052;2024-02-26T01:35:45;4.60;;;2.30;;
31482;SDS011;18103;52.246;8.052;2024-02-26T01:38:11;6.93;;;2.50;;
31482;SDS011;18103;52.246;8.052;2024-02-26T01:40:37;5.80;;;2.60;;
31482;SDS011;18103;52.246;8.052;2024-02-26T01:43:04;5.10;;;2.20;;
31482;SDS011;18103;52.246;8.052;2024-02-26T01:45:29;4.27;;;2.20;;
31482;SDS011;18103;52.246;8.052;2024-02-26T01:47:54;6.30;;;2.93;;
31482;SDS011;18103;52.246;8.052;2024-02-26T01:50:23;4.53;;;2.60;;
31482;SDS011;18103;52.246;8.052;2024-02-26T01:52:49;3.87;;;2.80;;
31482;SDS011;18103;52.246;8.052;2024-02-26T01:55:18;3.87;;;2.87;;
31482;SDS011;18103;52.246;8.052;2024-02-26T01:57:45;4.93;;;2.30;;
31482;SDS011;18103;52.246;8.052;2024-02-26T02:00:13;6.43;;;2.17;;
31482;SDS011;18103;52.246;8.052;2024-02-26T02:02:42;4.80;;;2.30;;
31482;SDS011;18103;52.246;8.052;2024-02-26T02:05:09;3.50;;;2.17;;
31482;SDS011;18103;52.246;8.052;2024-02-26T02:07:37;4.23;;;2.47;;
31482;SDS011;18103;52.246;8.052;2024-02-26T02:10:08;3.03;;;2.37;;
31482;SDS011;18103;52.246;8.052;2024-02-26T02:12:37;3.53;;;2.30;;
31482;SDS011;18103;52.246;8.052;2024-02-26T02:15:05;2.70;;;2.07;;
31482;SDS011;18103;52.246;8.052;2024-02-26T02:17:33;4.33;;;2.40;;
31482;SDS011;18103;52.246;8.052;2024-02-26T02:20:01;7.37;;;2.40;;
31482;SDS011;18103;52.246;8.052;2024-02-26T02:22:28;2.07;;;1.77;;
31482;SDS011;18103;52.246;8.052;2024-02-26T02:24:54;6.40;;;2.50;;
31482;SDS011;18103;52.246;8.052;2024-02-26T02:27:21;6.97;;;2.43;;
31482;SDS011;18103;52.246;8.052;2024-02-26T02:29:47;2.83;;;2.20;;
31482;SDS011;18103;52.246;8.052;2024-02-26T02:32:13;5.43;;;2.30;;
31482;SDS011;18103;52.246;8.052;2024-02-26T02:34:41;2.20;;;1.90;;
31482;SDS011;18103;52.246;8.052;2024-02-26T02:37:06;3.20;;;1.97;;
31482;SDS011;18103;52.246;8.052;2024-02-26T02:39:31;5.33;;;2.07;;
31482;SDS011;18103;52.246;8.052;2024-02-26T02:41:57;3.23;;;2.07;;
31482;SDS011;18103;52.246;8.052;2024-02-26T02:44:25;3.57;;;2.07;;
31482;SDS011;18103;52.246;8.052;2024-02-26T02:46:54;4.73;;;2.10;;
31482;SDS011;18103;52.246;8.052;2024-02-26T02:49:19;6.50;;;2.47;;
31482;SDS011;18103;52.246;8.052;2024-02-26T02:51:44;3.50;;;2.00;;
31482;SDS011;18103;52.246;8.052;2024-02-26T02:54:10;5.33;;;2.23;;
31482;SDS011;18103;52.246;8.052;2024-02-26T02:56:35;7.20;;;2.10;;
31482;SDS011;18103;52.246;8.052;2024-02-26T02:59:01;2.97;;;2.13;;
31482;SDS011;18103;52.246;8.052;2024-02-26T03:01:27;2.77;;;1.77;;
31482;SDS011;18103;52.246;8.052;2024-02-26T03:03:52;2.13;;;1.73;;
31482;SDS011;18103;52.246;8.052;2024-02-26T03:06:18;2.97;;;2.13;;
31482;SDS011;18103;52.246;8.052;2024-02-26T03:08:46;2.13;;;1.67;;
31482;SDS011;18103;52.246;8.052;2024-02-26T03:11:14;2.50;;;1.87;;
31482;SDS011;18103;52.246;8.052;2024-02-26T03:13:40;1.83;;;1.63;;
31482;SDS011;18103;52.246;8.052;2024-02-26T03:16:09;3.20;;;2.33;;
31482;SDS011;18103;52.246;8.052;2024-02-26T03:18:38;3.40;;;1.77;;
31482;SDS011;18103;52.246;8.052;2024-02-26T03:21:06;3.43;;;1.90;;
31482;SDS011;18103;52.246;8.052;2024-02-26T03:23:34;1.83;;;1.60;;
31482;SDS011;18103;52.246;8.052;2024-02-26T03:26:03;3.20;;;1.50;;
31482;SDS011;18103;52.246;8.052;2024-02-26T03:28:29;3.60;;;2.13;;
31482;SDS011;18103;52.246;8.052;2024-02-26T03:30:56;3.13;;;2.03;;
31482;SDS011;18103;52.246;8.052;2024-02-26T03:33:21;3.43;;;1.97;;
31482;SDS011;18103;52.246;8.052;2024-02-26T03:35:49;6.47;;;1.60;;
31482;SDS011;18103;52.246;8.052;2024-02-26T03:38:14;2.87;;;1.60;;
31482;SDS011;18103;52.246;8.052;2024-02-26T03:40:39;3.40;;;1.60;;
31482;SDS011;18103;52.246;8.052;2024-02-26T03:43:07;2.27;;;2.07;;
31482;SDS011;18103;52.246;8.052;2024-02-26T03:45:34;4.20;;;2.33;;
31482;SDS011;18103;52.246;8.052;2024-02-26T03:47:59;5.37;;;2.07;;
31482;SDS011;18103;52.246;8.052;2024-02-26T03:50:24;2.23;;;1.63;;
31482;SDS011;18103;52.246;8.052;2024-02-26T03:52:50;3.47;;;1.80;;
31482;SDS011;18103;52.246;8.052;2024-02-26T03:55:15;2.00;;;1.47;;
31482;SDS011;18103;52.246;8.052;2024-02-26T03:57:46;2.57;;;1.77;;
31482;SDS011;18103;52.246;8.052;2024-02-26T04:00:11;2.43;;;1.90;;
31482;SDS011;18103;52.246;8.052;2024-02-26T04:02:37;4.30;;;2.07;;
31482;SDS011;18103;52.246;8.052;2024-02-26T04:05:03;3.23;;;1.90;;
31482;SDS011;18103;52.246;8.052;2024-02-26T04:07:29;3.17;;;1.33;;
31482;SDS011;18103;52.246;8.052;2024-02-26T04:09:54;3.70;;;1.50;;
31482;SDS011;18103;52.246;8.052;2024-02-26T04:12:21;2.43;;;1.80;;
31482;SDS011;18103;52.246;8.052;2024-02-26T04:14:46;3.43;;;1.57;;
31482;SDS011;18103;52.246;8.052;2024-02-26T04:17:11;2.43;;;1.37;;
31482;SDS011;18103;52.246;8.052;2024-02-26T04:19:37;1.90;;;1.63;;
31482;SDS011;18103;52.246;8.052;2024-02-26T04:22:02;2.53;;;1.50;;
31482;SDS011;18103;52.246;8.052;2024-02-26T04:24:28;3.20;;;1.93;;
31482;SDS011;18103;52.246;8.052;2024-02-26T04:26:53;3.23;;;2.07;;
31482;SDS011;18103;52.246;8.052;2024-02-26T04:29:20;2.07;;;1.40;;
31482;SDS011;18103;52.246;8.052;2024-02-26T04:31:50;4.13;;;1.73;;
31482;SDS011;18103;52.246;8.052;2024-02-26T04:34:15;2.83;;;1.83;;
31482;SDS011;18103;52.246;8.052;2024-02-26T04:36:42;2.47;;;1.77;;
31482;SDS011;18103;52.246;8.052;2024-02-26T04:39:11;3.83;;;1.70;;
31482;SDS011;18103;52.246;8.052;2024-02-26T04:41:36;3.57;;;1.87;;
31482;SDS011;18103;52.246;8.052;2024-02-26T04:44:02;3.13;;;1.40;;
31482;SDS011;18103;52.246;8.052;2024-02-26T04:46:29;3.23;;;1.97;;
31482;SDS011;18103;52.246;8.052;2024-02-26T04:48:57;2.63;;;1.57;;
31482;SDS011;18103;52.246;8.052;2024-02-26T04:51:25;3.53;;;1.20;;
31482;SDS011;18103;52.246;8.052;2024-02-26T04:53:54;2.63;;;1.40;;
31482;SDS011;18103;52.246;8.052;2024-02-26T04:56:23;3.07;;;1.70;;
31482;SDS011;18103;52.246;8.052;2024-02-26T04:58:51;2.73;;;1.70;;
31482;SDS011;18103;52.246;8.052;2024-02-26T05:01:18;2.77;;;1.47;;
31482;SDS011;18103;52.246;8.052;2024-02-26T05:03:46;6.87;;;1.90;;
31482;SDS011;18103;52.246;8.052;2024-02-26T05:06:14;2.70;;;1.67;;
31482;SDS011;18103;52.246;8.052;2024-02-26T05:08:40;4.30;;;1.70;;
31482;SDS011;18103;52.246;8.052;2024-02-26T05:11:05;1.57;;;1.23;;
31482;SDS011;18103;52.246;8.052;2024-02-26T05:13:31;1.80;;;1.33;;
31482;SDS011;18103;52.246;8.052;2024-02-26T05:15:56;3.90;;;1.53;;
31482;SDS011;18103;52.246;8.052;2024-02-26T05:18:22;2.53;;;1.60;;
31482;SDS011;18103;52.246;8.052;2024-02-26T05:20:47;2.57;;;1.90;;
31482;SDS011;18103;52.246;8.052;2024-02-26T05:23:18;3.37;;;1.43;;
31482;SDS011;18103;52.246;8.052;2024-02-26T05:25:46;1.87;;;1.67;;
31482;SDS011;18103;52.246;8.052;2024-02-26T05:28:13;5.47;;;2.37;;
31482;SDS011;18103;52.246;8.052;2024-02-26T05:30:43;3.63;;;1.80;;
31482;SDS011;18103;52.246;8.052;2024-02-26T05:33:08;3.07;;;1.83;;
31482;SDS011;18103;52.246;8.052;2024-02-26T05:35:33;5.33;;;2.63;;
31482;SDS011;18103;52.246;8.052;2024-02-26T05:38:01;3.87;;;2.23;;
31482;SDS011;18103;52.246;8.052;2024-02-26T05:40:26;3.03;;;2.27;;
31482;SDS011;18103;52.246;8.052;2024-02-26T05:42:52;4.57;;;3.07;;
31482;SDS011;18103;52.246;8.052;2024-02-26T05:45:17;4.50;;;2.80;;
31482;SDS011;18103;52.246;8.052;2024-02-26T05:47:43;3.90;;;2.20;;
31482;SDS011;18103;52.246;8.052;2024-02-26T05:50:10;2.93;;;2.37;;
31482;SDS011;18103;52.246;8.052;2024-02-26T05:52:39;1.80;;;1.70;;
31482;SDS011;18103;52.246;8.052;2024-02-26T05:55:10;3.53;;;2.73;;
31482;SDS011;18103;52.246;8.052;2024-02-26T05:57:36;4.93;;;3.00;;
31482;SDS011;18103;52.246;8.052;2024-02-26T06:00:03;3.87;;;2.50;;
31482;SDS011;18103;52.246;8.052;2024-02-26T06:02:32;3.47;;;2.53;;
31482;SDS011;18103;52.246;8.052;2024-02-26T06:05:00;5.93;;;2.70;;
31482;SDS011;18103;52.246;8.052;2024-02-26T06:07:25;7.80;;;3.30;;
31482;SDS011;18103;52.246;8.052;2024-02-26T06:09:51;5.70;;;2.90;;
31482;SDS011;18103;52.246;8.052;2024-02-26T06:12:19;4.27;;;2.90;;
31482;SDS011;18103;52.246;8.052;2024-02-26T06:14:44;4.00;;;3.00;;
31482;SDS011;18103;52.246;8.052;2024-02-26T06:17:09;6.57;;;2.70;;
31482;SDS011;18103;52.246;8.052;2024-02-26T06:19:35;4.30;;;2.83;;
31482;SDS011;18103;52.246;8.052;2024-02-26T06:22:02;8.33;;;2.80;;
31482;SDS011;18103;52.246;8.052;2024-02-26T06:24:28;5.33;;;2.53;;
31482;SDS011;18103;52.246;8.052;2024-02-26T06:26:53;5.33;;;3.20;;
31482;SDS011;18103;52.246;8.052;2024-02-26T06:29:19;5.13;;;3.27;;
31482;SDS011;18103;52.246;8.052;2024-02-26T06:31:44;3.90;;;2.90;;
31482;SDS011;18103;52.246;8.052;2024-02-26T06:34:10;4.00;;;2.87;;
31482;SDS011;18103;52.246;8.052;2024-02-26T06:36:36;5.00;;;2.93;;
31482;SDS011;18103;52.246;8.052;2024-02-26T06:39:02;4.57;;;3.07;;
31482;SDS011;18103;52.246;8.052;2024-02-26T06:41:27;3.57;;;2.40;;
31482;SDS011;18103;52.246;8.052;2024-02-26T06:43:57;5.60;;;3.03;;
31482;SDS011;18103;52.246;8.052;2024-02-26T06:46:25;7.63;;;3.47;;
31482;SDS011;18103;52.246;8.052;2024-02-26T06:48:55;5.23;;;2.70;;
31482;SDS011;18103;52.246;8.052;2024-02-26T06:51:23;9.17;;;3.00;;
31482;SDS011;18103;52.246;8.052;2024-02-26T06:53:49;4.33;;;3.07;;
31482;SDS011;18103;52.246;8.052;2024-02-26T06:56:16;5.80;;;3.30;;
31482;SDS011;18103;52.246;8.052;2024-02-26T06:58:42;4.43;;;2.87;;
31482;SDS011;18103;52.246;8.052;2024-02-26T07:01:08;6.87;;;3.67;;
31482;SDS011;18103;52.246;8.052;2024-02-26T07:03:36;4.13;;;2.87;;
31482;SDS011;18103;52.246;8.052;2024-02-26T07:06:01;9.37;;;3.10;;
31482;SDS011;18103;52.246;8.052;2024-02-26T07:08:27;4.77;;;2.80;;
31482;SDS011;18103;52.246;8.052;2024-02-26T07:10:52;4.13;;;2.77;;
31482;SDS011;18103;52.246;8.052;2024-02-26T07:13:20;4.87;;;3.00;;
31482;SDS011;18103;52.246;8.052;2024-02-26T07:15:48;5.57;;;3.00;;
31482;SDS011;18103;52.246;8.052;2024-02-26T07:18:13;7.97;;;3.33;;
31482;SDS011;18103;52.246;8.052;2024-02-26T07:20:41;10.93;;;2.90;;
31482;SDS011;18103;52.246;8.052;2024-02-26T07:23:08;7.07;;;3.47;;
31482;SDS011;18103;52.246;8.052;2024-02-26T07:25:33;6.27;;;3.20;;
31482;SDS011;18103;52.246;8.052;2024-02-26T07:27:59;5.90;;;3.37;;
31482;SDS011;18103;52.246;8.052;2024-02-26T07:30:24;3.43;;;2.70;;
31482;SDS011;18103;52.246;8.052;2024-02-26T07:32:50;6.27;;;3.03;;
31482;SDS011;18103;52.246;8.052;2024-02-26T07:35:18;6.27;;;3.10;;
31482;SDS011;18103;52.246;8.052;2024-02-26T07:37:43;5.23;;;2.97;;
31482;SDS011;18103;52.246;8.052;2024-02-26T07:40:11;4.57;;;2.63;;
31482;SDS011;18103;52.246;8.052;2024-02-26T07:42:36;4.13;;;2.50;;
31482;SDS011;18103;52.246;8.052;2024-02-26T07:45:02;5.77;;;2.73;;
31482;SDS011;18103;52.246;8.052;2024-02-26T07:47:30;5.27;;;2.80;;
31482;SDS011;18103;52.246;8.052;2024-02-26T07:49:56;4.87;;;2.47;;
31482;SDS011;18103;52.246;8.052;2024-02-26T07:52:24;6.07;;;2.40;;
31482;SDS011;18103;52.246;8.052;2024-02-26T07:54:50;4.80;;;2.63;;
31482;SDS011;18103;52.246;8.052;2024-02-26T07:57:17;2.83;;;2.23;;
31482;SDS011;18103;52.246;8.052;2024-02-26T07:59:46;3.67;;;1.97;;
31482;SDS011;18103;52.246;8.052;2024-02-26T08:02:19;3.13;;;1.97;;
31482;SDS011;18103;52.246;8.052;2024-02-26T08:04:48;3.50;;;2.20;;
31482;SDS011;18103;52.246;8.052;2024-02-26T08:07:17;4.17;;;1.73;;
31482;SDS011;18103;52.246;8.052;2024-02-26T08:09:42;3.20;;;2.10;;
31482;SDS011;18103;52.246;8.052;2024-02-26T08:12:08;7.27;;;2.97;;
31482;SDS011;18103;52.246;8.052;2024-02-26T08:14:35;5.50;;;2.73;;
31482;SDS011;18103;52.246;8.052;2024-02-26T08:17:00;6.27;;;2.33;;
31482;SDS011;18103;52.246;8.052;2024-02-26T08:19:27;3.53;;;2.40;;
31482;SDS011;18103;52.246;8.052;2024-02-26T08:21:52;5.00;;;2.60;;
31482;SDS011;18103;52.246;8.052;2024-02-26T08:24:18;3.53;;;2.40;;
31482;SDS011;18103;52.246;8.052;2024-02-26T08:26:44;6.57;;;2.83;;
31482;SDS011;18103;52.246;8.052;2024-02-26T08:29:10;4.80;;;2.63;;
31482;SDS011;18103;52.246;8.052;2024-02-26T08:31:40;4.93;;;2.10;;
31482;SDS011;18103;52.246;8.052;2024-02-26T08:34:06;4.73;;;2.10;;
31482;SDS011;18103;52.246;8.052;2024-02-26T08:36:32;3.30;;;2.30;;
31482;SDS011;18103;52.246;8.052;2024-02-26T08:38:59;4.67;;;2.07;;
31482;SDS011;18103;52.246;8.052;2024-02-26T08:41:26;3.53;;;2.17;;
31482;SDS011;18103;52.246;8.052;2024-02-26T08:43:54;3.50;;;2.00;;
31482;SDS011;18103;52.246;8.052;2024-02-26T08:46:19;3.63;;;1.97;;
31482;SDS011;18103;52.246;8.052;2024-02-26T08:48:45;4.40;;;2.27;;
31482;SDS011;18103;52.246;8.052;2024-02-26T08:51:10;4.07;;;2.67;;
31482;SDS011;18103;52.246;8.052;2024-02-26T08:53:36;7.17;;;2.93;;
31482;SDS011;18103;52.246;8.052;2024-02-26T08:56:05;3.77;;;2.37;;
31482;SDS011;18103;52.246;8.052;2024-02-26T08:58:33;4.63;;;2.70;;
31482;SDS011;18103;52.246;8.052;2024-02-26T09:01:01;3.90;;;2.60;;
31482;SDS011;18103;52.246;8.052;2024-02-26T09:03:26;6.23;;;2.50;;
31482;SDS011;18103;52.246;8.052;2024-02-26T09:05:52;4.67;;;2.67;;
31482;SDS011;18103;52.246;8.052;2024-02-26T09:08:17;4.47;;;3.00;;
31482;SDS011;18103;52.246;8.052;2024-02-26T09:10:45;6.10;;;2.77;;
31482;SDS011;18103;52.246;8.052;2024-02-26T09:13:13;7.20;;;3.20;;
31482;SDS011;18103;52.246;8.052;2024-02-26T09:15:38;4.37;;;3.40;;
31482;SDS011;18103;52.246;8.052;2024-02-26T09:18:03;4.60;;;3.03;;
31482;SDS011;18103;52.246;8.052;2024-02-26T09:20:31;4.20;;;2.70;;
31482;SDS011;18103;52.246;8.052;2024-02-26T09:22:56;7.47;;;3.50;;
31482;SDS011;18103;52.246;8.052;2024-02-26T09:25:27;8.77;;;3.30;;
31482;SDS011;18103;52.246;8.052;2024-02-26T09:27:52;7.23;;;2.43;;
31482;SDS011;18103;52.246;8.052;2024-02-26T09:30:18;5.27;;;2.90;;
31482;SDS011;18103;52.246;8.052;2024-02-26T09:32:45;6.20;;;2.67;;
31482;SDS011;18103;52.246;8.052;2024-02-26T09:35:13;5.43;;;3.50;;
31482;SDS011;18103;52.246;8.052;2024-02-26T09:37:41;4.83;;;2.50;;
31482;SDS011;18103;52.246;8.052;2024-02-26T09:40:11;4.30;;;2.40;;
31482;SDS011;18103;52.246;8.052;2024-02-26T09:42:43;5.70;;;2.57;;
31482;SDS011;18103;52.246;8.052;2024-02-26T09:45:20;4.97;;;2.80;;
31482;SDS011;18103;52.246;8.052;2024-02-26T09:47:49;4.23;;;2.60;;
31482;SDS011;18103;52.246;8.052;2024-02-26T09:50:16;7.27;;;2.40;;
31482;SDS011;18103;52.246;8.052;2024-02-26T09:52:49;4.53;;;2.13;;
31482;SDS011;18103;52.246;8.052;2024-02-26T09:55:19;4.00;;;2.57;;
31482;SDS011;18103;52.246;8.052;2024-02-26T09:57:45;3.37;;;2.27;;
31482;SDS011;18103;52.246;8.052;2024-02-26T10:00:15;3.90;;;2.37;;
31482;SDS011;18103;52.246;8.052;2024-02-26T10:02:47;6.63;;;2.47;;
31482;SDS011;18103;52.246;8.052;2024-02-26T10:05:14;4.30;;;1.80;;
31482;SDS011;18103;52.246;8.052;2024-02-26T10:07:43;8.03;;;2.13;;
31482;SDS011;18103;52.246;8.052;2024-02-26T10:10:09;2.73;;;2.00;;
31482;SDS011;18103;52.246;8.052;2024-02-26T10:12:35;6.57;;;2.07;;
31482;SDS011;18103;52.246;8.052;2024-02-26T10:15:00;2.33;;;1.43;;
31482;SDS011;18103;52.246;8.052;2024-02-26T10:17:28;3.90;;;1.77;;
31482;SDS011;18103;52.246;8.052;2024-02-26T10:19:54;2.13;;;1.80;;
31482;SDS011;18103;52.246;8.052;2024-02-26T10:22:23;3.77;;;1.90;;
31482;SDS011;18103;52.246;8.052;2024-02-26T10:24:53;2.37;;;1.80;;
31482;SDS011;18103;52.246;8.052;2024-02-26T10:27:21;2.87;;;1.80;;
31482;SDS011;18103;52.246;8.052;2024-02-26T10:29:47;2.53;;;1.90;;
31482;SDS011;18103;52.246;8.052;2024-02-26T10:32:12;2.50;;;2.17;;
31482;SDS011;18103;52.246;8.052;2024-02-26T10:34:40;2.40;;;1.70;;
31482;SDS011;18103;52.246;8.052;2024-02-26T10:37:09;5.50;;;2.20;;
31482;SDS011;18103;52.246;8.052;2024-02-26T10:39:35;2.70;;;1.60;;
31482;SDS011;18103;52.246;8.052;2024-02-26T10:42:02;2.20;;;1.47;;
31482;SDS011;18103;52.246;8.052;2024-02-26T10:44:31;2.13;;;1.67;;
31482;SDS011;18103;52.246;8.052;2024-02-26T10:46:57;3.47;;;1.67;;
31482;SDS011;18103;52.246;8.052;2024-02-26T10:49:24;5.03;;;1.60;;
31482;SDS011;18103;52.246;8.052;2024-02-26T10:51:56;2.53;;;1.50;;
31482;SDS011;18103;52.246;8.052;2024-02-26T10:54:26;3.70;;;1.67;;
31482;SDS011;18103;52.246;8.052;2024-02-26T10:56:57;3.13;;;1.40;;
31482;SDS011;18103;52.246;8.052;2024-02-26T10:59:24;3.40;;;1.67;;
31482;SDS011;18103;52.246;8.052;2024-02-26T11:01:52;5.83;;;2.03;;
31482;SDS011;18103;52.246;8.052;2024-02-26T11:04:19;4.63;;;1.80;;
31482;SDS011;18103;52.246;8.052;2024-02-26T11:06:47;3.17;;;1.80;;
31482;SDS011;18103;52.246;8.052;2024-02-26T11:09:17;4.73;;;1.70;;
31482;SDS011;18103;52.246;8.052;2024-02-26T11:11:44;3.60;;;2.30;;
31482;SDS011;18103;52.246;8.052;2024-02-26T11:14:10;3.00;;;1.83;;
31482;SDS011;18103;52.246;8.052;2024-02-26T11:16:39;1.97;;;1.60;;
31482;SDS011;18103;52.246;8.052;2024-02-26T11:19:08;4.57;;;2.40;;
31482;SDS011;18103;52.246;8.052;2024-02-26T11:21:35;4.27;;;2.23;;
31482;SDS011;18103;52.246;8.052;2024-02-26T11:24:11;4.00;;;2.13;;
31482;SDS011;18103;52.246;8.052;2024-02-26T11:26:51;3.10;;;1.80;;
31482;SDS011;18103;52.246;8.052;2024-02-26T11:29:24;3.37;;;2.13;;
31482;SDS011;18103;52.246;8.052;2024-02-26T11:31:52;7.03;;;2.80;;
31482;SDS011;18103;52.246;8.052;2024-02-26T11:34:18;4.10;;;1.70;;
31482;SDS011;18103;52.246;8.052;2024-02-26T11:36:46;3.97;;;2.03;;
31482;SDS011;18103;52.246;8.052;2024-02-26T11:39:14;4.10;;;2.40;;
31482;SDS011;18103;52.246;8.052;2024-02-26T11:41:41;10.57;;;2.37;;
31482;SDS011;18103;52.246;8.052;2024-02-26T11:44:10;3.87;;;2.00;;
31482;SDS011;18103;52.246;8.052;2024-02-26T11:46:42;1.70;;;1.43;;
31482;SDS011;18103;52.246;8.052;2024-02-26T11:51:50;2.40;;;1.83;;
31482;SDS011;18103;52.246;8.052;2024-02-26T11:54:45;3.27;;;1.60;;
31482;SDS011;18103;52.246;8.052;2024-02-26T12:00:14;2.50;;;1.90;;
31482;SDS011;18103;52.246;8.052;2024-02-26T12:02:49;4.33;;;2.17;;
31482;SDS011;18103;52.246;8.052;2024-02-26T12:05:23;3.13;;;1.63;;
31482;SDS011;18103;52.246;8.052;2024-02-26T12:10:23;1.77;;;1.40;;
31482;SDS011;18103;52.246;8.052;2024-02-26T12:15:26;3.23;;;1.50;;
31482;SDS011;18103;52.246;8.052;2024-02-26T12:17:58;2.17;;;1.40;;
31482;SDS011;18103;52.246;8.052;2024-02-26T12:20:26;5.73;;;1.77;;
31482;SDS011;18103;52.246;8.052;2024-02-26T12:22:54;1.67;;;1.20;;
31482;SDS011;18103;52.246;8.052;2024-02-26T12:25:26;1.97;;;1.57;;
31482;SDS011;18103;52.246;8.052;2024-02-26T12:27:56;1.67;;;0.93;;
31482;SDS011;18103;52.246;8.052;2024-02-26T12:30:22;3.67;;;1.47;;
31482;SDS011;18103;52.246;8.052;2024-02-26T12:32:53;2.00;;;1.40;;
31482;SDS011;18103;52.246;8.052;2024-02-26T12:35:25;4.17;;;2.10;;
31482;SDS011;18103;52.246;8.052;2024-02-26T12:37:52;2.60;;;1.60;;
31482;SDS011;18103;52.246;8.052;2024-02-26T12:40:21;2.53;;;1.53;;
31482;SDS011;18103;52.246;8.052;2024-02-26T12:42:47;3.40;;;1.87;;
31482;SDS011;18103;52.246;8.052;2024-02-26T12:45:13;3.70;;;1.57;;
31482;SDS011;18103;52.246;8.052;2024-02-26T12:47:41;2.03;;;1.20;;
31482;SDS011;18103;52.246;8.052;2024-02-26T12:50:14;2.27;;;1.37;;
31482;SDS011;18103;52.246;8.052;2024-02-26T12:52:44;2.63;;;1.67;;
31482;SDS011;18103;52.246;8.052;2024-02-26T12:55:14;1.97;;;1.67;;
31482;SDS011;18103;52.246;8.052;2024-02-26T12:57:45;4.73;;;1.50;;
31482;SDS011;18103;52.246;8.052;2024-02-26T13:00:15;2.03;;;1.57;;
31482;SDS011;18103;52.246;8.052;2024-02-26T13:02:43;3.73;;;1.63;;
31482;SDS011;18103;52.246;8.052;2024-02-26T13:05:12;3.47;;;1.90;;
31482;SDS011;18103;52.246;8.052;2024-02-26T13:07:42;3.10;;;1.87;;
31482;SDS011;18103;52.246;8.052;2024-02-26T13:10:09;1.90;;;1.30;;
31482;SDS011;18103;52.246;8.052;2024-02-26T13:12:37;4.40;;;1.77;;
31482;SDS011;18103;52.246;8.052;2024-02-26T13:15:07;2.57;;;1.40;;
31482;SDS011;18103;52.246;8.052;2024-02-26T13:17:39;3.47;;;1.90;;
31482;SDS011;18103;52.246;8.052;2024-02-26T13:20:04;1.87;;;1.50;;
31482;SDS011;18103;52.246;8.052;2024-02-26T13:22:34;2.13;;;1.60;;
31482;SDS011;18103;52.246;8.052;2024-02-26T13:25:00;2.70;;;1.70;;
31482;SDS011;18103;52.246;8.052;2024-02-26T13:27:28;1.60;;;1.27;;
31482;SDS011;18103;52.246;8.052;2024-02-26T13:32:31;3.33;;;1.60;;
31482;SDS011;18103;52.246;8.052;2024-02-26T13:35:04;2.50;;;1.70;;
31482;SDS011;18103;52.246;8.052;2024-02-26T13:37:37;2.00;;;1.57;;
31482;SDS011;18103;52.246;8.052;2024-02-26T13:40:10;3.47;;;1.83;;
31482;SDS011;18103;52.246;8.052;2024-02-26T13:42:38;2.87;;;1.73;;
31482;SDS011;18103;52.246;8.052;2024-02-26T13:45:04;0.93;;;0.63;;
31482;SDS011;18103;52.246;8.052;2024-02-26T13:47:33;2.63;;;1.60;;
31482;SDS011;18103;52.246;8.052;2024-02-26T13:50:05;3.03;;;1.50;;
31482;SDS011;18103;52.246;8.052;2024-02-26T13:52:31;4.80;;;1.60;;
31482;SDS011;18103;52.246;8.052;2024-02-26T13:54:59;3.47;;;2.10;;
31482;SDS011;18103;52.246;8.052;2024-02-26T13:57:24;2.20;;;1.60;;
31482;SDS011;18103;52.246;8.052;2024-02-26T13:59:53;3.10;;;1.90;;
31482;SDS011;18103;52.246;8.052;2024-02-26T14:02:18;4.60;;;1.70;;
31482;SDS011;18103;52.246;8.052;2024-02-26T14:04:46;5.23;;;1.80;;
31482;SDS011;18103;52.246;8.052;2024-02-26T14:07:11;2.60;;;1.50;;
31482;SDS011;18103;52.246;8.052;2024-02-26T14:09:37;3.80;;;1.80;;
31482;SDS011;18103;52.246;8.052;2024-02-26T14:12:03;2.03;;;1.70;;
31482;SDS011;18103;52.246;8.052;2024-02-26T14:14:31;1.83;;;1.60;;
31482;SDS011;18103;52.246;8.052;2024-02-26T14:17:00;2.73;;;1.70;;
31482;SDS011;18103;52.246;8.052;2024-02-26T14:19:26;3.83;;;2.03;;
31482;SDS011;18103;52.246;8.052;2024-02-26T14:21:51;2.80;;;1.80;;
31482;SDS011;18103;52.246;8.052;2024-02-26T14:24:19;3.20;;;1.80;;
31482;SDS011;18103;52.246;8.052;2024-02-26T14:26:44;2.33;;;1.50;;
31482;SDS011;18103;52.246;8.052;2024-02-26T14:29:15;3.10;;;2.10;;
31482;SDS011;18103;52.246;8.052;2024-02-26T14:31:41;5.43;;;1.80;;
31482;SDS011;18103;52.246;8.052;2024-02-26T14:34:11;2.37;;;2.10;;
31482;SDS011;18103;52.246;8.052;2024-02-26T14:36:36;4.13;;;2.10;;
31482;SDS011;18103;52.246;8.052;2024-02-26T14:39:02;2.83;;;1.77;;
31482;SDS011;18103;52.246;8.052;2024-02-26T14:41:28;4.33;;;2.30;;
31482;SDS011;18103;52.246;8.052;2024-02-26T14:43:53;4.13;;;2.20;;
31482;SDS011;18103;52.246;8.052;2024-02-26T14:46:18;5.60;;;2.53;;
31482;SDS011;18103;52.246;8.052;2024-02-26T14:48:47;3.90;;;2.17;;
31482;SDS011;18103;52.246;8.052;2024-02-26T14:51:12;3.73;;;2.37;;
31482;SDS011;18103;52.246;8.052;2024-02-26T14:53:37;2.33;;;1.57;;
31482;SDS011;18103;52.246;8.052;2024-02-26T14:56:03;3.63;;;1.87;;
31482;SDS011;18103;52.246;8.052;2024-02-26T14:58:28;3.97;;;2.13;;
31482;SDS011;18103;52.246;8.052;2024-02-26T15:00:54;7.00;;;2.40;;